createdAt,value
2023-03-16T00:01:07.413Z,1.40
2023-03-16T00:03:34.183Z,1.40
2023-03-16T00:06:00.861Z,1.27
2023-03-16T00:08:27.416Z,1.30
2023-03-16T00:10:54.272Z,1.38
2023-03-16T00:13:24.116Z,1.58
2023-03-16T00:15:51.783Z,1.42
2023-03-16T00:18:19.123Z,1.40
2023-03-16T00:20:49.857Z,1.70
2023-03-16T00:23:16.431Z,1.73
2023-03-16T00:25:43.058Z,1.33
2023-03-16T00:28:09.575Z,0.93
2023-03-16T00:30:36.808Z,1.13
2023-03-16T00:33:05.064Z,1.83
2023-03-16T00:35:34.726Z,1.23
2023-03-16T00:38:01.355Z,1.30
2023-03-16T00:40:28.172Z,1.98
2023-03-16T00:42:55.174Z,1.23
2023-03-16T00:45:21.763Z,1.30
2023-03-16T00:47:48.354Z,1.23
2023-03-16T00:50:15.697Z,1.80
2023-03-16T00:52:42.439Z,1.40
2023-03-16T00:55:09.553Z,1.45
2023-03-16T00:57:36.231Z,1.15
2023-03-16T01:00:12.793Z,1.50
2023-03-16T01:02:39.574Z,1.40
2023-03-16T01:05:06.722Z,1.13
2023-03-16T01:07:36.169Z,1.77
2023-03-16T01:10:03.961Z,1.67
2023-03-16T01:12:30.619Z,1.40
2023-03-16T01:14:57.276Z,1.45
2023-03-16T01:17:23.870Z,1.50
2023-03-16T01:19:51.734Z,1.50
2023-03-16T01:22:18.738Z,1.98
2023-03-16T01:24:45.940Z,1.60
2023-03-16T01:27:14.016Z,1.45
2023-03-16T01:29:40.861Z,1.90
2023-03-16T01:32:07.604Z,1.30
2023-03-16T01:34:35.229Z,1.70
2023-03-16T01:37:02.439Z,1.90
2023-03-16T01:39:29.151Z,1.50
2023-03-16T01:41:55.748Z,1.75
2023-03-16T01:44:30.496Z,1.38
2023-03-16T01:46:57.586Z,2.15
2023-03-16T01:49:32.902Z,1.42
2023-03-16T01:52:21.460Z,1.73
2023-03-16T01:55:15.050Z,1.50
2023-03-16T01:57:46.060Z,1.57
2023-03-16T02:00:20.003Z,2.20
2023-03-16T02:02:51.487Z,2.20
2023-03-16T02:05:33.293Z,1.30
2023-03-16T02:08:01.657Z,2.15
2023-03-16T02:10:29.838Z,1.75
2023-03-16T02:12:58.127Z,1.67
2023-03-16T02:15:25.247Z,1.60
2023-03-16T02:17:52.016Z,1.65
2023-03-16T02:20:42.626Z,1.90
2023-03-16T02:23:18.642Z,1.80
2023-03-16T02:26:16.296Z,1.80
2023-03-16T02:29:07.585Z,1.80
2023-03-16T02:31:34.580Z,1.77
2023-03-16T02:34:01.893Z,1.70
2023-03-16T02:36:30.029Z,1.73
2023-03-16T02:38:56.618Z,1.63
2023-03-16T02:41:23.267Z,1.50
2023-03-16T02:43:59.345Z,2.08
2023-03-16T02:46:28.306Z,2.25
2023-03-16T02:49:07.479Z,1.85
2023-03-16T02:51:34.145Z,1.63
2023-03-16T02:54:00.679Z,1.85
2023-03-16T02:56:27.383Z,1.70
2023-03-16T02:58:54.104Z,2.20
2023-03-16T03:01:20.694Z,2.80
2023-03-16T03:03:47.280Z,1.70
2023-03-16T03:06:13.832Z,1.73
2023-03-16T03:08:40.423Z,1.77
2023-03-16T03:11:07.089Z,2.38
2023-03-16T03:13:33.744Z,1.95
2023-03-16T03:16:00.355Z,1.50
2023-03-16T03:18:27.230Z,1.67
2023-03-16T03:20:53.866Z,2.47
2023-03-16T03:23:20.568Z,2.78
2023-03-16T03:25:48.024Z,2.05
2023-03-16T03:28:14.823Z,2.50
2023-03-16T03:30:41.841Z,2.85
2023-03-16T03:33:08.538Z,1.92
2023-03-16T03:35:35.308Z,2.53
2023-03-16T03:38:02.012Z,1.98
2023-03-16T03:40:28.874Z,2.00
2023-03-16T03:42:55.537Z,2.50
2023-03-16T03:45:22.070Z,2.33
2023-03-16T03:47:48.619Z,3.35
2023-03-16T03:50:15.210Z,3.17
2023-03-16T03:52:41.883Z,2.20
2023-03-16T03:55:09.396Z,1.95
2023-03-16T03:57:36.122Z,2.70
2023-03-16T04:00:07.932Z,2.35
2023-03-16T04:02:38.799Z,1.95
2023-03-16T04:05:07.182Z,2.40
2023-03-16T04:07:33.767Z,2.55
2023-03-16T04:10:00.339Z,2.53
2023-03-16T04:12:27.158Z,2.08
2023-03-16T04:14:53.774Z,2.75
2023-03-16T04:17:20.406Z,2.70
2023-03-16T04:19:47.681Z,2.65
2023-03-16T04:22:14.250Z,2.33
2023-03-16T04:24:43.218Z,2.30
2023-03-16T04:27:12.097Z,3.38
2023-03-16T04:29:39.141Z,3.13
2023-03-16T04:32:08.985Z,2.78
2023-03-16T04:34:36.016Z,3.25
2023-03-16T04:37:02.856Z,2.83
2023-03-16T04:39:29.449Z,3.20
2023-03-16T04:41:56.017Z,3.42
2023-03-16T04:44:22.831Z,3.03
2023-03-16T04:46:49.404Z,2.90
2023-03-16T04:49:15.975Z,3.85
2023-03-16T04:51:42.662Z,3.10
2023-03-16T04:54:09.593Z,2.70
2023-03-16T04:56:36.263Z,3.20
2023-03-16T04:59:02.894Z,3.30
2023-03-16T05:01:29.586Z,2.85
2023-03-16T05:03:57.545Z,3.08
2023-03-16T05:06:25.794Z,3.10
2023-03-16T05:08:52.779Z,3.10
2023-03-16T05:11:19.414Z,3.22
2023-03-16T05:13:46.004Z,2.67
2023-03-16T05:16:12.637Z,3.42
2023-03-16T05:18:39.212Z,2.88
2023-03-16T05:21:05.971Z,2.95
2023-03-16T05:23:32.597Z,2.28
2023-03-16T05:26:02.553Z,3.35
2023-03-16T05:28:29.214Z,3.10
2023-03-16T05:30:56.529Z,3.92
2023-03-16T05:33:23.292Z,2.65
2023-03-16T05:35:51.216Z,3.00
2023-03-16T05:38:18.390Z,3.42
2023-03-16T05:40:46.218Z,2.90
2023-03-16T05:43:13.486Z,3.13
2023-03-16T05:45:40.043Z,3.50
2023-03-16T05:48:06.730Z,3.20
2023-03-16T05:50:33.324Z,3.92
2023-03-16T05:52:59.906Z,3.83
2023-03-16T05:55:26.514Z,3.25
2023-03-16T05:57:53.170Z,3.20
2023-03-16T06:00:20.825Z,3.20
2023-03-16T06:02:51.231Z,2.88
2023-03-16T06:05:19.976Z,3.28
2023-03-16T06:07:46.536Z,2.60
2023-03-16T06:10:13.849Z,3.90
2023-03-16T06:12:41.343Z,2.88
2023-03-16T06:15:09.558Z,2.78
2023-03-16T06:17:37.317Z,3.65
2023-03-16T06:20:11.001Z,1.92
2023-03-16T06:22:38.899Z,2.65
2023-03-16T06:25:06.269Z,3.58
2023-03-16T06:27:32.950Z,3.63
2023-03-16T06:29:59.559Z,3.38
2023-03-16T06:32:26.228Z,2.65
2023-03-16T06:34:52.961Z,2.55
2023-03-16T06:37:19.566Z,3.08
2023-03-16T06:39:46.088Z,3.10
2023-03-16T06:42:12.641Z,3.40
2023-03-16T06:44:39.203Z,4.38
2023-03-16T06:47:05.971Z,3.33
2023-03-16T06:49:32.660Z,3.40
2023-03-16T06:51:59.266Z,3.00
2023-03-16T06:54:25.874Z,2.70
2023-03-16T06:56:52.514Z,2.42
2023-03-16T06:59:19.136Z,3.50
2023-03-16T07:01:45.707Z,3.03
2023-03-16T07:04:12.856Z,2.58
2023-03-16T07:06:39.414Z,3.13
2023-03-16T07:09:05.967Z,2.35
2023-03-16T07:11:32.789Z,2.88
2023-03-16T07:13:59.626Z,3.08
2023-03-16T07:16:26.342Z,3.25
2023-03-16T07:18:53.086Z,2.92
2023-03-16T07:21:19.891Z,2.45
2023-03-16T07:23:46.644Z,3.45
2023-03-16T07:26:13.998Z,2.92
2023-03-16T07:28:41.100Z,2.92
2023-03-16T07:33:42.997Z,2.60
2023-03-16T07:36:10.780Z,2.50
2023-03-16T07:38:37.536Z,2.05
2023-03-16T07:41:04.136Z,2.45
2023-03-16T07:43:30.823Z,2.72
2023-03-16T07:45:57.460Z,3.03
2023-03-16T07:48:24.068Z,2.78
2023-03-16T07:50:51.036Z,2.25
2023-03-16T07:53:18.044Z,1.80
2023-03-16T07:55:44.934Z,2.00
2023-03-16T07:58:12.071Z,2.22
2023-03-16T08:00:39.310Z,1.92
2023-03-16T08:03:06.274Z,2.17
2023-03-16T08:05:32.915Z,2.17
2023-03-16T08:08:01.209Z,2.67
2023-03-16T08:10:28.338Z,2.22
2023-03-16T08:12:55.238Z,2.05
2023-03-16T08:15:21.831Z,2.10
2023-03-16T08:17:48.420Z,2.00
2023-03-16T08:20:15.670Z,1.80
2023-03-16T08:22:46.383Z,1.80
2023-03-16T08:25:14.441Z,2.53
2023-03-16T08:27:43.197Z,2.13
2023-03-16T08:30:12.604Z,2.50
2023-03-16T08:32:42.637Z,1.90
2023-03-16T08:35:13.977Z,1.63
2023-03-16T08:37:42.003Z,2.30
2023-03-16T08:40:15.750Z,2.08
2023-03-16T08:45:13.478Z,1.95
2023-03-16T08:47:40.702Z,2.20
2023-03-16T08:50:09.297Z,2.35
2023-03-16T08:52:36.745Z,2.35
2023-03-16T08:55:09.711Z,1.92
2023-03-16T08:57:37.522Z,2.30
2023-03-16T09:00:12.729Z,1.58
2023-03-16T09:02:42.960Z,2.15
2023-03-16T09:05:14.896Z,2.15
2023-03-16T09:07:42.366Z,2.30
2023-03-16T09:10:13.325Z,1.52
2023-03-16T09:12:41.008Z,1.38
2023-03-16T09:15:10.177Z,1.45
2023-03-16T09:17:36.828Z,1.13
2023-03-16T09:20:19.493Z,1.60
2023-03-16T09:22:48.348Z,1.27
2023-03-16T09:25:15.632Z,1.40
2023-03-16T09:27:42.743Z,1.00
2023-03-16T09:30:10.637Z,1.75
2023-03-16T09:32:37.527Z,2.00
2023-03-16T09:35:06.320Z,1.42
2023-03-16T09:37:44.762Z,1.67
2023-03-16T09:40:28.608Z,1.90
2023-03-16T09:43:04.442Z,1.42
2023-03-16T09:46:04.076Z,1.40
2023-03-16T09:48:33.911Z,1.50
2023-03-16T09:51:03.907Z,1.38
2023-03-16T09:53:33.318Z,1.52
2023-03-16T09:56:18.656Z,1.67
2023-03-16T09:58:45.782Z,1.40
2023-03-16T10:01:48.325Z,1.92
2023-03-16T10:04:33.608Z,1.90
2023-03-16T10:07:15.583Z,1.35
2023-03-16T10:10:06.173Z,1.30
2023-03-16T10:12:41.438Z,1.02
2023-03-16T10:15:19.426Z,1.48
2023-03-16T10:18:16.419Z,1.25
2023-03-16T10:20:45.420Z,1.00
2023-03-16T10:23:24.231Z,1.40
2023-03-16T10:25:55.839Z,1.50
2023-03-16T10:28:27.778Z,1.60
2023-03-16T10:30:57.861Z,1.80
2023-03-16T10:33:36.654Z,1.27
2023-03-16T10:36:14.051Z,1.10
2023-03-16T10:38:46.936Z,1.10
2023-03-16T10:41:22.744Z,1.17
2023-03-16T10:44:12.127Z,1.10
2023-03-16T10:46:50.539Z,1.65
2023-03-16T10:49:23.260Z,1.08
2023-03-16T10:51:49.961Z,2.58
2023-03-16T10:54:24.881Z,1.50
2023-03-16T10:56:51.723Z,1.30
2023-03-16T10:59:28.722Z,1.80
2023-03-16T11:01:55.631Z,1.42
2023-03-16T11:04:23.020Z,1.45
2023-03-16T11:06:57.644Z,0.93
2023-03-16T11:09:33.502Z,1.20
2023-03-16T11:12:12.317Z,1.45
2023-03-16T11:14:44.480Z,1.13
2023-03-16T11:17:16.223Z,0.90
2023-03-16T11:20:00.672Z,1.20
2023-03-16T11:22:27.833Z,1.00
2023-03-16T11:25:12.587Z,1.17
2023-03-16T11:27:56.607Z,1.30
2023-03-16T11:33:00.576Z,0.80
2023-03-16T11:35:56.387Z,1.27
2023-03-16T11:38:37.704Z,1.20
2023-03-16T11:41:10.562Z,1.08
2023-03-16T11:43:53.285Z,0.73
2023-03-16T11:46:20.813Z,0.77
2023-03-16T11:48:47.362Z,0.68
2023-03-16T11:51:26.089Z,0.90
2023-03-16T11:54:21.245Z,1.23
2023-03-16T11:56:57.416Z,1.00
2023-03-16T11:59:33.774Z,2.22
2023-03-16T12:02:10.034Z,1.30
2023-03-16T12:04:45.259Z,1.02
2023-03-16T12:07:25.915Z,1.23
2023-03-16T12:10:11.074Z,1.63
2023-03-16T12:12:37.744Z,1.30
2023-03-16T12:15:22.477Z,1.15
2023-03-16T12:17:51.443Z,1.00
2023-03-16T12:20:31.770Z,1.67
2023-03-16T12:23:23.469Z,1.52
2023-03-16T12:25:52.372Z,1.63
2023-03-16T12:28:24.891Z,1.13
2023-03-16T12:31:12.259Z,1.10
2023-03-16T12:33:57.195Z,1.00
2023-03-16T12:36:42.979Z,0.70
2023-03-16T12:39:21.145Z,1.35
2023-03-16T12:42:16.977Z,1.33
2023-03-16T12:44:56.609Z,1.13
2023-03-16T12:47:24.074Z,1.08
2023-03-16T12:49:52.110Z,0.90
2023-03-16T12:52:18.902Z,1.50
2023-03-16T12:55:08.512Z,1.00
2023-03-16T12:57:36.401Z,1.05
2023-03-16T13:00:09.073Z,1.38
2023-03-16T13:02:38.838Z,1.33
2023-03-16T13:05:11.692Z,1.17
2023-03-16T13:07:50.282Z,0.97
2023-03-16T13:10:20.854Z,1.00
2023-03-16T13:12:48.714Z,1.00
2023-03-16T13:15:22.252Z,1.20
2023-03-16T13:17:51.780Z,1.58
2023-03-16T13:20:31.813Z,1.67
2023-03-16T13:23:09.971Z,1.55
2023-03-16T13:25:45.205Z,1.38
2023-03-16T13:28:17.286Z,1.17
2023-03-16T13:30:48.704Z,1.10
2023-03-16T13:33:26.383Z,1.00
2023-03-16T13:35:56.523Z,1.02
2023-03-16T13:38:28.625Z,1.13
2023-03-16T13:41:10.375Z,1.58
2023-03-16T13:43:41.819Z,0.95
2023-03-16T13:46:21.398Z,1.40
2023-03-16T13:48:49.310Z,0.88
2023-03-16T13:51:21.169Z,0.98
2023-03-16T13:53:49.409Z,0.90
2023-03-16T13:56:18.820Z,1.10
2023-03-16T13:58:49.747Z,1.40
2023-03-16T14:01:30.029Z,1.83
2023-03-16T14:04:00.404Z,1.40
2023-03-16T14:06:30.545Z,1.20
2023-03-16T14:09:01.499Z,1.25
2023-03-16T14:11:28.607Z,1.23
2023-03-16T14:14:00.678Z,1.48
2023-03-16T14:16:29.884Z,1.10
2023-03-16T14:19:08.129Z,1.33
2023-03-16T14:21:35.078Z,1.90
2023-03-16T14:24:04.765Z,1.70
2023-03-16T14:26:46.567Z,1.30
2023-03-16T14:29:33.129Z,1.30
2023-03-16T14:32:00.168Z,1.55
2023-03-16T14:34:30.659Z,1.10
2023-03-16T14:37:07.501Z,1.40
2023-03-16T14:39:34.112Z,1.38
2023-03-16T14:42:04.149Z,1.50
2023-03-16T14:44:34.735Z,1.30
2023-03-16T14:47:04.104Z,1.13
2023-03-16T14:49:33.797Z,1.90
2023-03-16T14:52:07.598Z,1.85
2023-03-16T14:54:34.177Z,1.58
2023-03-16T14:57:05.676Z,1.23
2023-03-16T14:59:33.226Z,1.15
2023-03-16T15:02:03.227Z,1.20
2023-03-16T15:04:33.631Z,1.40
2023-03-16T15:07:02.238Z,1.20
2023-03-16T15:09:39.811Z,2.67
2023-03-16T15:12:34.443Z,1.33
2023-03-16T15:15:16.653Z,1.38
2023-03-16T15:17:44.435Z,1.17
2023-03-16T15:20:16.733Z,1.83
2023-03-16T15:22:44.940Z,1.60
2023-03-16T15:25:21.818Z,1.45
2023-03-16T15:27:48.959Z,1.23
2023-03-16T15:30:27.345Z,1.40
2023-03-16T15:32:54.370Z,1.38
2023-03-16T15:35:21.329Z,1.25
2023-03-16T15:37:48.661Z,1.50
2023-03-16T15:40:15.575Z,1.50
2023-03-16T15:42:44.127Z,1.15
2023-03-16T15:45:15.271Z,1.45
2023-03-16T15:47:42.367Z,1.35
2023-03-16T15:50:12.428Z,1.05
2023-03-16T15:52:41.386Z,0.98
2023-03-16T15:55:16.314Z,1.10
2023-03-16T15:57:43.167Z,1.30
2023-03-16T16:00:25.062Z,1.55
2023-03-16T16:02:51.688Z,1.50
2023-03-16T16:05:18.241Z,1.15
2023-03-16T16:07:44.909Z,1.23
2023-03-16T16:10:14.904Z,1.42
2023-03-16T16:12:41.480Z,1.55
2023-03-16T16:15:21.699Z,1.02
2023-03-16T16:18:13.296Z,1.27
2023-03-16T16:20:36.845Z,1.88
2023-03-16T16:23:03.429Z,1.60
2023-03-16T16:25:38.069Z,2.38
2023-03-16T16:28:14.097Z,2.35
2023-03-16T16:30:40.771Z,1.40
2023-03-16T16:33:25.499Z,1.23
2023-03-16T16:35:53.348Z,1.88
2023-03-16T16:38:19.966Z,2.15
2023-03-16T16:40:47.655Z,3.10
2023-03-16T16:43:32.544Z,2.20
2023-03-16T16:46:04.988Z,2.60
2023-03-16T16:48:36.785Z,1.80
2023-03-16T16:51:07.154Z,1.40
2023-03-16T16:53:33.896Z,1.48
2023-03-16T16:56:01.250Z,1.45
2023-03-16T16:58:28.084Z,1.30
2023-03-16T17:00:56.977Z,1.55
2023-03-16T17:03:29.109Z,1.83
2023-03-16T17:05:58.930Z,1.25
2023-03-16T17:08:26.129Z,1.50
2023-03-16T17:10:53.912Z,2.22
2023-03-16T17:13:26.754Z,1.40
2023-03-16T17:15:54.982Z,1.60
2023-03-16T17:18:22.184Z,2.08
2023-03-16T17:20:50.743Z,1.85
2023-03-16T17:23:26.616Z,2.50
2023-03-16T17:25:54.467Z,2.50
2023-03-16T17:28:22.410Z,1.60
2023-03-16T17:30:49.337Z,2.08
2023-03-16T17:33:18.940Z,1.70
2023-03-16T17:35:49.007Z,1.90
2023-03-16T17:38:21.304Z,1.95
2023-03-16T17:40:48.984Z,1.60
2023-03-16T17:43:17.740Z,1.70
2023-03-16T17:45:46.251Z,1.73
2023-03-16T17:48:26.420Z,2.45
2023-03-16T17:50:53.141Z,1.90
2023-03-16T17:53:21.740Z,2.03
2023-03-16T17:55:48.681Z,2.53
2023-03-16T17:58:26.771Z,1.90
2023-03-16T18:00:57.392Z,1.98
2023-03-16T18:03:30.090Z,2.42
2023-03-16T18:05:57.314Z,2.38
2023-03-16T18:08:27.699Z,1.90
2023-03-16T18:11:08.030Z,1.85
2023-03-16T18:13:37.969Z,1.77
2023-03-16T18:16:06.386Z,1.80
2023-03-16T18:18:37.431Z,1.83
2023-03-16T18:21:04.910Z,2.10
2023-03-16T18:23:35.806Z,2.15
2023-03-16T18:26:07.037Z,1.80
2023-03-16T18:28:34.666Z,1.90
2023-03-16T18:31:03.709Z,1.90
2023-03-16T18:33:34.301Z,2.20
2023-03-16T18:36:03.870Z,2.38
2023-03-16T18:38:30.712Z,1.90
2023-03-16T18:40:59.956Z,2.08
2023-03-16T18:43:27.418Z,2.20
2023-03-16T18:45:54.973Z,1.50
2023-03-16T18:48:33.803Z,1.80
2023-03-16T18:51:01.090Z,2.67
2023-03-16T18:53:28.201Z,2.67
2023-03-16T18:55:57.535Z,2.10
2023-03-16T18:58:24.896Z,2.22
2023-03-16T19:00:59.409Z,2.28
2023-03-16T19:03:38.242Z,2.33
2023-03-16T19:06:06.273Z,2.28
2023-03-16T19:08:34.396Z,2.42
2023-03-16T19:11:02.436Z,2.70
2023-03-16T19:13:29.840Z,2.78
2023-03-16T19:15:57.940Z,2.42
2023-03-16T19:18:26.298Z,2.60
2023-03-16T19:20:54.703Z,2.60
2023-03-16T19:23:26.288Z,2.20
2023-03-16T19:25:54.552Z,2.40
2023-03-16T19:28:33.802Z,2.50
2023-03-16T19:31:02.005Z,2.35
2023-03-16T19:33:29.293Z,2.55
2023-03-16T19:35:56.865Z,2.80
2023-03-16T19:38:25.084Z,2.97
2023-03-16T19:40:58.019Z,2.45
2023-03-16T19:43:26.219Z,2.30
2023-03-16T19:45:53.159Z,2.90
2023-03-16T19:48:24.496Z,2.53
2023-03-16T19:50:51.224Z,3.25
2023-03-16T19:53:22.628Z,2.60
2023-03-16T19:55:52.278Z,2.95
2023-03-16T19:58:34.955Z,2.55
2023-03-16T20:01:02.199Z,2.95
2023-03-16T20:03:31.865Z,2.88
2023-03-16T20:05:58.441Z,3.10
2023-03-16T20:08:27.393Z,3.10
2023-03-16T20:11:02.833Z,2.80
2023-03-16T20:13:31.368Z,4.10
2023-03-16T20:15:58.339Z,4.18
2023-03-16T20:18:25.072Z,4.68
2023-03-16T20:20:52.217Z,6.70
2023-03-16T20:23:23.586Z,4.57
2023-03-16T20:25:52.322Z,3.92
2023-03-16T20:28:22.822Z,4.70
2023-03-16T20:30:50.742Z,5.50
2023-03-16T20:33:22.707Z,4.50
2023-03-16T20:38:31.812Z,3.00
2023-03-16T20:40:58.674Z,3.30
2023-03-16T20:43:29.090Z,3.10
2023-03-16T20:45:58.365Z,3.00
2023-03-16T20:48:25.666Z,3.45
2023-03-16T20:50:55.008Z,3.28
2023-03-16T20:53:22.550Z,3.53
2023-03-16T20:55:52.739Z,3.60
2023-03-16T20:58:35.666Z,3.35
2023-03-16T21:01:03.708Z,3.55
2023-03-16T21:03:33.356Z,3.63
2023-03-16T21:06:00.241Z,3.50
2023-03-16T21:08:27.204Z,3.90
2023-03-16T21:10:56.272Z,3.10
2023-03-16T21:13:33.718Z,3.60
2023-03-16T21:16:02.370Z,3.88
2023-03-16T21:18:30.515Z,2.53
2023-03-16T21:20:58.276Z,2.42
2023-03-16T21:23:24.968Z,2.90
2023-03-16T21:25:57.659Z,3.85
2023-03-16T21:28:26.049Z,2.38
2023-03-16T21:30:55.350Z,2.28
2023-03-16T21:33:37.489Z,1.95
2023-03-16T21:36:08.141Z,3.20
2023-03-16T21:38:34.859Z,3.80
2023-03-16T21:41:01.524Z,3.85
2023-03-16T21:43:28.300Z,3.03
2023-03-16T21:45:55.425Z,2.90
2023-03-16T21:48:24.855Z,3.60
2023-03-16T21:50:52.995Z,3.47
2023-03-16T21:53:28.293Z,3.72
2023-03-16T21:55:56.360Z,4.10
2023-03-16T21:58:24.174Z,2.80
2023-03-16T22:00:52.764Z,3.50
2023-03-16T22:03:33.044Z,3.10
2023-03-16T22:06:04.894Z,4.00
2023-03-16T22:08:34.299Z,3.00
2023-03-16T22:11:01.800Z,3.30
2023-03-16T22:13:28.834Z,3.30
2023-03-16T22:15:58.292Z,3.13
2023-03-16T22:18:34.541Z,2.70
2023-03-16T22:21:03.606Z,3.55
2023-03-16T22:23:35.700Z,2.53
2023-03-16T22:26:08.412Z,4.22
2023-03-16T22:28:35.020Z,2.72
2023-03-16T22:31:03.303Z,2.95
2023-03-16T22:33:33.050Z,2.67
2023-03-16T22:36:04.389Z,3.80
2023-03-16T22:38:31.111Z,3.25
2023-03-16T22:40:57.756Z,3.03
2023-03-16T22:43:36.340Z,2.97
2023-03-16T22:46:03.322Z,3.35
2023-03-16T22:48:31.401Z,3.45
2023-03-16T22:51:04.820Z,3.53
2023-03-16T22:53:38.956Z,3.30
2023-03-16T22:56:06.579Z,3.10
2023-03-16T22:58:36.978Z,3.80
2023-03-16T23:01:28.074Z,2.78
2023-03-16T23:03:54.743Z,2.55
2023-03-16T23:06:24.572Z,4.38
2023-03-16T23:08:51.783Z,4.47
2023-03-16T23:11:31.478Z,2.97
2023-03-16T23:13:59.764Z,3.63
2023-03-16T23:16:33.986Z,2.22
2023-03-16T23:19:01.668Z,3.17
2023-03-16T23:21:30.048Z,2.85
2023-03-16T23:24:04.027Z,2.67
2023-03-16T23:26:31.968Z,4.00
2023-03-16T23:28:59.640Z,3.10
2023-03-16T23:31:27.688Z,2.60
2023-03-16T23:33:54.367Z,2.30
2023-03-16T23:36:23.069Z,3.08
2023-03-16T23:38:50.325Z,3.30
2023-03-16T23:41:20.491Z,2.45
2023-03-16T23:43:48.456Z,2.60
2023-03-16T23:46:18.608Z,2.42
2023-03-16T23:48:46.886Z,2.20
2023-03-16T23:51:22.649Z,2.90
2023-03-16T23:53:50.036Z,3.55
2023-03-16T23:56:16.976Z,2.47
2023-03-16T23:58:43.845Z,2.53
